Time;durP1;ratioP1;P1;durP2;ratioP2;P2;SDS_P1;SDS_P2;PMS_P1;PMS_P2;Temp;Humidity;BMP_temperature;BMP_pressure;BME280_temperature;BME280_humidity;BME280_pressure;Samples;Min_cycle;Max_cycle;Signal;HPM_P1;HPM_P2
2023/01/16 00:01:11;;;;;;;3.93;1.67;;;5.30;1.00;;;;;;4858278;29;20308;-64
2023/01/16 00:03:39;;;;;;;2.80;1.40;;;5.30;1.00;;;;;;4850392;29;20301;-63
2023/01/16 00:06:07;;;;;;;6.27;1.33;;;5.20;1.00;;;;;;4883693;29;20285;-64
2023/01/16 00:08:36;;;;;;;4.03;1.67;;;5.20;1.00;;;;;;4850820;29;20212;-62
2023/01/16 00:11:06;;;;;;;4.50;1.60;;;5.10;1.00;;;;;;4882027;29;20624;-66
2023/01/16 00:13:33;;;;;;;3.03;1.43;;;5.20;1.00;;;;;;4881941;29;20696;-64
2023/01/16 00:16:08;;;;;;;5.47;1.80;;;5.20;1.00;;;;;;4882248;29;20292;-64
2023/01/16 00:18:38;;;;;;;4.30;1.40;;;5.20;1.00;;;;;;4880804;29;20860;-64
2023/01/16 00:21:09;;;;;;;3.83;1.30;;;5.20;1.00;;;;;;4872289;29;20201;-64
2023/01/16 00:23:39;;;;;;;4.60;1.40;;;5.30;1.00;;;;;;4865157;29;20212;-64
2023/01/16 00:26:09;;;;;;;4.90;1.60;;;5.20;1.00;;;;;;4883887;29;20304;-66
2023/01/16 00:28:39;;;;;;;5.90;1.70;;;5.20;59.90;;;;;;4873465;29;20231;-65
2023/01/16 00:31:13;;;;;;;6.27;1.60;;;5.00;99.90;;;;;;4878273;29;20692;-65
2023/01/16 00:33:42;;;;;;;4.57;1.57;;;4.90;99.90;;;;;;4878179;29;20205;-65
2023/01/16 00:36:10;;;;;;;3.33;1.40;;;4.80;99.90;;;;;;4876267;29;20205;-65
2023/01/16 00:38:42;;;;;;;6.93;1.60;;;4.90;99.90;;;;;;4886199;29;20610;-64
2023/01/16 00:41:09;;;;;;;3.70;1.57;;;5.00;99.90;;;;;;4875630;29;20215;-64
2023/01/16 00:43:36;;;;;;;8.50;2.63;;;4.90;99.90;;;;;;4884677;29;20629;-64
2023/01/16 00:46:03;;;;;;;6.17;2.43;;;4.90;99.90;;;;;;4884997;29;20209;-64
2023/01/16 00:48:31;;;;;;;21.00;8.60;;;4.90;99.90;;;;;;4870773;29;20841;-64
2023/01/16 00:50:57;;;;;;;11.73;5.03;;;5.00;99.90;;;;;;4884566;29;20292;-65
2023/01/16 00:53:24;;;;;;;8.03;3.40;;;5.10;99.90;;;;;;4868868;29;20236;-64
2023/01/16 00:55:52;;;;;;;9.30;3.07;;;5.00;99.90;;;;;;4856121;29;20240;-65
2023/01/16 00:58:19;;;;;;;14.30;5.07;;;5.10;99.90;;;;;;4885475;29;20197;-65
2023/01/16 01:00:46;;;;;;;21.23;9.80;;;5.00;99.90;;;;;;4885518;29;20239;-64
2023/01/16 01:03:14;;;;;;;5.00;1.20;;;5.10;99.90;;;;;;4884928;29;20233;-65
2023/01/16 01:05:41;;;;;;;4.23;1.30;;;5.20;46.50;;;;;;4887274;29;20606;-64
2023/01/16 01:08:08;;;;;;;10.03;2.67;;;5.20;51.60;;;;;;4883052;29;20212;-63
2023/01/16 01:10:37;;;;;;;3.53;1.30;;;5.10;85.30;;;;;;4869878;29;20201;-64
2023/01/16 01:13:07;;;;;;;7.17;2.10;;;5.10;86.10;;;;;;4886786;29;20249;-66
2023/01/16 01:15:43;;;;;;;3.77;1.20;;;5.00;58.10;;;;;;4869105;29;20200;-65
2023/01/16 01:18:25;;;;;;;5.13;1.77;;;5.10;56.50;;;;;;4855367;29;20229;-65
2023/01/16 01:20:54;;;;;;;4.60;1.20;;;5.00;80.90;;;;;;4870955;29;20203;-66
2023/01/16 01:23:21;;;;;;;1.97;1.13;;;5.00;86.60;;;;;;4876779;29;20273;-65
2023/01/16 01:25:52;;;;;;;3.30;1.60;;;5.00;77.20;;;;;;4867859;29;20245;-67
2023/01/16 01:28:28;;;;;;;5.47;1.80;;;4.90;99.60;;;;;;4869847;29;20197;-65
2023/01/16 01:30:55;;;;;;;4.57;1.53;;;4.90;67.60;;;;;;4870122;29;20205;-65
2023/01/16 01:33:22;;;;;;;6.17;1.77;;;4.90;45.70;;;;;;4885380;29;20228;-63
2023/01/16 01:35:51;;;;;;;4.13;1.50;;;4.90;53.40;;;;;;4886792;29;20204;-64
2023/01/16 01:38:18;;;;;;;3.07;1.13;;;4.80;46.70;;;;;;4867453;29;20201;-67
2023/01/16 01:40:47;;;;;;;5.73;1.20;;;4.80;9.70;;;;;;4886495;29;20189;-63
2023/01/16 01:43:19;;;;;;;3.23;1.30;;;4.80;6.30;;;;;;4886589;29;20501;-64
2023/01/16 01:46:04;;;;;;;6.27;1.43;;;4.80;1.00;;;;;;4873314;29;20205;-65
2023/01/16 01:48:40;;;;;;;2.67;1.00;;;4.80;8.20;;;;;;4885353;29;20199;-64
2023/01/16 01:51:12;;;;;;;1.40;1.00;;;4.80;1.00;;;;;;4885314;29;20205;-64
2023/01/16 01:53:57;;;;;;;1.60;1.10;;;4.70;13.10;;;;;;4887311;29;20734;-64
2023/01/16 01:56:40;;;;;;;1.33;0.90;;;4.60;26.90;;;;;;4887807;29;20253;-65
2023/01/16 01:59:24;;;;;;;3.00;1.30;;;4.60;19.30;;;;;;4884615;29;20232;-64
2023/01/16 02:02:00;;;;;;;2.53;0.90;;;4.50;46.00;;;;;;4857152;29;20198;-64
2023/01/16 02:04:32;;;;;;;2.40;1.00;;;4.40;67.20;;;;;;4883507;29;20244;-63
2023/01/16 02:07:03;;;;;;;4.07;1.00;;;4.30;91.20;;;;;;4885065;29;20196;-65
2023/01/16 02:09:30;;;;;;;2.10;1.30;;;4.30;99.90;;;;;;4875973;29;20268;-63
2023/01/16 02:12:04;;;;;;;1.80;1.00;;;4.20;99.90;;;;;;4868569;29;20233;-64
2023/01/16 02:14:36;;;;;;;1.37;0.90;;;4.20;99.90;;;;;;4885247;29;20560;-62
2023/01/16 02:20:09;;;;;;;3.70;1.03;;;4.10;99.90;;;;;;4885650;29;20951;-64
2023/01/16 02:23:13;;;;;;;2.07;1.10;;;4.10;99.90;;;;;;4884282;29;20201;-64
2023/01/16 02:26:02;;;;;;;3.87;1.27;;;3.90;99.90;;;;;;4867502;29;20749;-64
2023/01/16 02:29:13;;;;;;;2.63;1.20;;;4.00;99.90;;;;;;4874404;29;20848;-65
2023/01/16 02:32:06;;;;;;;2.20;1.03;;;4.00;99.90;;;;;;4886636;29;20205;-64
2023/01/16 02:35:07;;;;;;;3.50;1.13;;;3.90;99.90;;;;;;4875512;29;20212;-64
2023/01/16 02:37:33;;;;;;;5.00;0.90;;;3.80;99.90;;;;;;4898054;29;20200;-67
2023/01/16 02:40:39;;;;;;;4.30;1.30;;;3.80;99.90;;;;;;4883425;29;20198;-65
2023/01/16 02:43:32;;;;;;;2.97;1.33;;;3.80;99.90;;;;;;4871569;29;20746;-63
2023/01/16 02:45:59;;;;;;;2.70;1.27;;;3.90;99.90;;;;;;4884845;29;20224;-66
2023/01/16 02:48:55;;;;;;;2.20;1.13;;;3.90;99.90;;;;;;4868043;29;20192;-66
2023/01/16 02:51:34;;;;;;;2.30;1.30;;;3.90;99.90;;;;;;4867278;29;20241;-64
2023/01/16 02:54:22;;;;;;;1.87;1.20;;;3.90;99.90;;;;;;4884992;29;20220;-64
2023/01/16 02:57:07;;;;;;;2.23;0.90;;;3.90;99.90;;;;;;4885020;29;20201;-64
2023/01/16 02:59:34;;;;;;;2.97;1.20;;;3.90;99.90;;;;;;4883769;29;20244;-66
2023/01/16 03:02:08;;;;;;;2.10;1.30;;;4.00;99.90;;;;;;4883166;29;20224;-63
2023/01/16 03:04:44;;;;;;;3.87;1.23;;;4.00;99.90;;;;;;4883523;29;20245;-62
2023/01/16 03:07:36;;;;;;;2.77;1.30;;;3.90;99.90;;;;;;4874850;29;20213;-62
2023/01/16 03:10:22;;;;;;;4.27;1.20;;;3.90;99.90;;;;;;4881769;29;20573;-64
2023/01/16 03:13:01;;;;;;;2.63;1.10;;;3.90;99.90;;;;;;4883932;29;20252;-63
2023/01/16 03:15:29;;;;;;;1.73;1.17;;;3.90;99.90;;;;;;4884347;29;20243;-63
2023/01/16 03:18:38;;;;;;;3.47;1.00;;;4.00;99.90;;;;;;4884406;29;20197;-62
2023/01/16 03:21:30;;;;;;;3.37;2.17;;;4.10;99.00;;;;;;4883851;29;20244;-62
2023/01/16 03:24:20;;;;;;;5.07;1.40;;;4.10;99.40;;;;;;4866810;29;20677;-63
2023/01/16 03:26:53;;;;;;;4.60;2.03;;;4.20;99.90;;;;;;4882057;29;20544;-62
2023/01/16 03:29:49;;;;;;;3.67;2.03;;;4.20;97.40;;;;;;4883706;29;20224;-63
2023/01/16 03:32:30;;;;;;;10.37;3.00;;;4.00;99.90;;;;;;4884576;29;20197;-64
2023/01/16 03:35:25;;;;;;;4.97;1.80;;;3.90;99.90;;;;;;4873934;29;20900;-63
2023/01/16 03:38:02;;;;;;;2.97;1.20;;;4.00;99.90;;;;;;4882929;29;20202;-63
2023/01/16 03:40:34;;;;;;;3.83;1.00;;;3.90;99.90;;;;;;4883131;29;20201;-63
2023/01/16 03:43:07;;;;;;;4.30;1.23;;;3.80;99.90;;;;;;4852397;29;20666;-63
2023/01/16 03:45:52;;;;;;;4.23;1.30;;;3.90;99.90;;;;;;4883973;29;20312;-63
2023/01/16 03:48:22;;;;;;;3.40;1.23;;;3.90;99.90;;;;;;4883700;29;20188;-62
2023/01/16 03:50:56;;;;;;;2.27;1.00;;;3.90;99.90;;;;;;4883932;29;20531;-63
2023/01/16 03:53:28;;;;;;;5.47;1.50;;;4.00;99.90;;;;;;4867015;29;20247;-64
2023/01/16 03:56:05;;;;;;;3.00;1.50;;;4.00;99.90;;;;;;4882553;29;20246;-65
2023/01/16 03:58:49;;;;;;;3.20;1.70;;;4.10;99.90;;;;;;4881598;29;20194;-64
2023/01/16 04:01:36;;;;;;;4.00;1.40;;;4.20;99.90;;;;;;4873362;29;20753;-62
2023/01/16 04:04:36;;;;;;;2.47;1.00;;;4.30;99.90;;;;;;4859625;29;20236;-63
2023/01/16 04:07:11;;;;;;;2.40;1.30;;;4.40;99.90;;;;;;4858089;29;20219;-61
2023/01/16 04:09:47;;;;;;;1.37;1.10;;;4.50;98.90;;;;;;4890933;29;20205;-62
2023/01/16 04:12:19;;;;;;;1.47;1.10;;;4.40;99.90;;;;;;4890359;29;20304;-61
2023/01/16 04:14:56;;;;;;;3.47;1.70;;;4.50;95.60;;;;;;4872562;29;20208;-62
2023/01/16 04:17:24;;;;;;;4.67;1.70;;;4.40;99.90;;;;;;4873065;29;20224;-61
2023/01/16 04:19:51;;;;;;;1.83;1.20;;;4.30;99.90;;;;;;4880088;29;20538;-62
2023/01/16 04:22:25;;;;;;;2.13;1.20;;;4.20;99.90;;;;;;4887745;29;20295;-61
2023/01/16 04:24:55;;;;;;;2.43;1.20;;;4.10;99.90;;;;;;4889620;29;20206;-62
2023/01/16 04:27:23;;;;;;;2.67;1.03;;;4.10;99.90;;;;;;4872085;29;20186;-61
2023/01/16 04:29:50;;;;;;;3.03;1.07;;;4.00;99.90;;;;;;4891175;29;20606;-62
2023/01/16 04:32:17;;;;;;;3.63;1.17;;;4.00;99.90;;;;;;4880893;29;20518;-62
2023/01/16 04:34:44;;;;;;;3.37;1.00;;;3.90;99.90;;;;;;4864071;29;20261;-62
2023/01/16 04:37:14;;;;;;;1.63;1.03;;;3.80;99.90;;;;;;4887626;29;20224;-66
2023/01/16 04:39:42;;;;;;;3.60;1.20;;;3.70;99.90;;;;;;4889611;29;20284;-63
2023/01/16 04:42:10;;;;;;;2.40;1.30;;;3.60;99.90;;;;;;4873006;29;20625;-63
2023/01/16 04:44:37;;;;;;;0.93;0.90;;;3.50;99.90;;;;;;4857378;29;20327;-62
2023/01/16 04:47:04;;;;;;;2.20;0.97;;;3.50;99.90;;;;;;4855598;29;20208;-63
2023/01/16 04:49:31;;;;;;;3.50;2.20;;;3.40;99.90;;;;;;4889682;29;20200;-62
2023/01/16 04:51:58;;;;;;;4.63;2.50;;;3.40;99.90;;;;;;4872963;29;20224;-63
2023/01/16 04:54:26;;;;;;;5.43;2.50;;;3.40;99.90;;;;;;4887740;29;20240;-63
2023/01/16 04:56:52;;;;;;;3.47;1.53;;;3.30;1.00;;;;;;4889305;29;20269;-62
2023/01/16 04:59:19;;;;;;;2.13;1.50;;;3.40;99.90;;;;;;4889620;29;20203;-63
2023/01/16 05:01:47;;;;;;;2.53;1.30;;;3.30;1.00;;;;;;4880589;29;20205;-65
2023/01/16 05:04:15;;;;;;;1.77;1.40;;;3.30;1.00;;;;;;4886834;29;20229;-62
2023/01/16 05:06:42;;;;;;;1.10;1.00;;;3.40;99.90;;;;;;4887012;29;20201;-62
2023/01/16 05:09:09;;;;;;;2.17;1.20;;;3.40;99.90;;;;;;4870576;29;20225;-62
2023/01/16 05:11:36;;;;;;;2.57;1.10;;;3.40;99.90;;;;;;4887762;29;20196;-62
2023/01/16 05:14:07;;;;;;;1.20;0.90;;;3.40;99.90;;;;;;4868810;29;20220;-62
2023/01/16 05:16:35;;;;;;;0.80;0.80;;;3.50;99.90;;;;;;4886518;29;20296;-63
2023/01/16 05:19:03;;;;;;;1.37;0.90;;;3.40;99.90;;;;;;4883053;29;20608;-62
2023/01/16 05:21:30;;;;;;;0.97;0.90;;;3.40;99.90;;;;;;4886186;29;20186;-62
2023/01/16 05:23:57;;;;;;;4.50;1.10;;;3.40;99.90;;;;;;4885128;29;20261;-63
2023/01/16 05:26:25;;;;;;;1.80;1.13;;;3.40;99.90;;;;;;4884461;29;20256;-63
2023/01/16 05:28:52;;;;;;;1.80;1.13;;;3.30;99.90;;;;;;4887542;29;20272;-62
2023/01/16 05:31:19;;;;;;;2.90;1.00;;;3.30;99.90;;;;;;4876180;29;20554;-63
2023/01/16 05:33:46;;;;;;;2.30;0.90;;;3.30;99.90;;;;;;4886485;29;20726;-63
2023/01/16 05:36:13;;;;;;;1.77;1.10;;;3.30;99.90;;;;;;4885672;29;20566;-67
2023/01/16 05:38:40;;;;;;;1.00;0.80;;;3.30;99.90;;;;;;4885534;29;20237;-64
2023/01/16 05:41:08;;;;;;;2.33;1.20;;;3.40;99.90;;;;;;4875142;29;20657;-65
2023/01/16 05:43:35;;;;;;;3.00;1.40;;;3.20;99.90;;;;;;4886675;29;20263;-66
2023/01/16 05:46:03;;;;;;;1.80;0.97;;;3.20;1.00;;;;;;4884772;29;20277;-65
2023/01/16 05:48:35;;;;;;;1.40;1.20;;;3.20;1.00;;;;;;4885634;29;20217;-64
2023/01/16 05:51:03;;;;;;;1.63;1.10;;;3.30;1.00;;;;;;4876593;29;20621;-65
2023/01/16 05:53:30;;;;;;;2.77;1.20;;;3.40;99.90;;;;;;4884170;29;20201;-65
2023/01/16 05:55:58;;;;;;;2.03;1.10;;;3.30;99.90;;;;;;4865843;29;20224;-65
2023/01/16 05:58:25;;;;;;;1.37;1.10;;;3.30;99.90;;;;;;4861251;29;20222;-65
2023/01/16 06:00:52;;;;;;;1.43;1.20;;;3.20;1.00;;;;;;4884223;29;20244;-65
2023/01/16 06:03:20;;;;;;;2.20;1.40;;;3.30;1.00;;;;;;4884467;29;20260;-65
2023/01/16 06:05:48;;;;;;;3.17;1.00;;;3.20;1.00;;;;;;4869766;29;20252;-66
2023/01/16 06:08:15;;;;;;;4.23;1.57;;;3.20;1.00;;;;;;4885085;29;20666;-66
2023/01/16 06:10:44;;;;;;;4.13;1.37;;;3.30;1.00;;;;;;4882611;29;20482;-65
2023/01/16 06:13:11;;;;;;;11.70;10.60;;;3.20;1.00;;;;;;4885634;29;20189;-65
2023/01/16 06:15:38;;;;;;;7.43;1.63;;;3.20;1.00;;;;;;4884258;29;20763;-67
2023/01/16 06:18:05;;;;;;;4.70;1.67;;;3.20;1.00;;;;;;4869582;29;20780;-65
2023/01/16 06:20:32;;;;;;;3.77;1.20;;;3.30;1.00;;;;;;4880845;29;20615;-65
2023/01/16 06:22:59;;;;;;;3.63;1.50;;;3.30;1.00;;;;;;4850218;29;20282;-66
2023/01/16 06:25:26;;;;;;;2.23;1.13;;;3.20;1.00;;;;;;4865613;29;20244;-66
2023/01/16 06:27:53;;;;;;;2.93;1.30;;;3.30;1.00;;;;;;4886353;29;20280;-66
2023/01/16 06:30:22;;;;;;;3.17;1.57;;;3.20;1.00;;;;;;4875102;29;20208;-65
2023/01/16 06:32:50;;;;;;;2.00;1.40;;;3.30;1.00;;;;;;4883966;29;20229;-65
2023/01/16 06:35:18;;;;;;;5.17;1.30;;;3.40;1.00;;;;;;4867403;29;20195;-65
2023/01/16 06:37:45;;;;;;;4.40;1.20;;;3.40;1.00;;;;;;4885503;29;20217;-65
2023/01/16 06:40:12;;;;;;;2.00;1.20;;;3.40;1.00;;;;;;4881539;29;20205;-65
2023/01/16 06:42:39;;;;;;;2.23;1.30;;;3.40;1.00;;;;;;4875244;29;20276;-65
2023/01/16 06:45:06;;;;;;;4.57;1.27;;;3.50;99.90;;;;;;4885012;29;20217;-65
2023/01/16 06:47:33;;;;;;;6.67;1.20;;;3.60;99.90;;;;;;4874433;29;20273;-66
2023/01/16 06:50:00;;;;;;;3.53;1.57;;;3.60;99.90;;;;;;4883608;29;20805;-66
2023/01/16 06:52:27;;;;;;;2.80;1.20;;;3.70;99.90;;;;;;4869768;29;20650;-65
2023/01/16 06:54:55;;;;;;;3.97;1.57;;;3.70;99.90;;;;;;4874674;29;20617;-65
2023/01/16 06:57:22;;;;;;;2.97;1.50;;;3.70;99.90;;;;;;4883275;29;20192;-65
2023/01/16 06:59:50;;;;;;;3.63;1.50;;;3.80;99.90;;;;;;4885417;29;20196;-65
2023/01/16 07:02:17;;;;;;;2.00;1.07;;;3.90;99.90;;;;;;4866546;29;20300;-65
2023/01/16 07:04:44;;;;;;;4.63;1.80;;;3.90;99.90;;;;;;4863123;29;20242;-65
2023/01/16 07:07:11;;;;;;;2.50;1.13;;;3.90;99.90;;;;;;4884361;29;20194;-65
2023/01/16 07:09:38;;;;;;;4.53;1.30;;;4.00;99.90;;;;;;4884795;29;20198;-66
2023/01/16 07:12:07;;;;;;;2.90;1.40;;;4.10;99.90;;;;;;4865818;29;20258;-65
2023/01/16 07:23:20;;;;;;;2.53;1.13;;;4.40;99.90;;;;;;4857463;29;20218;-65
2023/01/16 07:25:47;;;;;;;2.43;1.40;;;4.40;99.90;;;;;;4881885;29;20326;-65
2023/01/16 07:28:14;;;;;;;2.10;1.53;;;4.40;99.90;;;;;;4874238;29;20265;-65
2023/01/16 07:30:43;;;;;;;2.07;1.67;;;4.50;82.20;;;;;;4867676;29;20236;-66
2023/01/16 07:33:11;;;;;;;2.63;1.37;;;4.50;96.90;;;;;;4883673;29;20673;-65
2023/01/16 07:35:38;;;;;;;3.20;1.60;;;4.50;91.70;;;;;;4883475;29;20779;-66
2023/01/16 07:38:05;;;;;;;4.73;1.50;;;4.50;64.20;;;;;;4885159;29;20254;-65
2023/01/16 07:40:32;;;;;;;1.87;1.37;;;4.60;49.60;;;;;;4886674;29;20685;-65
2023/01/16 07:42:59;;;;;;;2.63;1.10;;;4.60;27.30;;;;;;4866735;29;20258;-65
2023/01/16 07:45:26;;;;;;;4.87;1.93;;;4.70;1.00;;;;;;4865537;29;20254;-66
2023/01/16 07:47:53;;;;;;;2.33;1.43;;;4.70;1.00;;;;;;4869424;29;20233;-65
2023/01/16 07:50:20;;;;;;;2.70;1.37;;;4.80;1.00;;;;;;4883747;29;20265;-66
2023/01/16 07:52:50;;;;;;;1.90;1.30;;;4.80;1.00;;;;;;4883695;29;20201;-68
2023/01/16 07:55:17;;;;;;;5.53;1.50;;;4.90;1.00;;;;;;4885916;29;20276;-66
2023/01/16 07:57:44;;;;;;;2.23;1.30;;;4.80;1.00;;;;;;4858864;29;20619;-65
2023/01/16 08:00:12;;;;;;;3.60;1.30;;;4.90;1.00;;;;;;4870376;29;20240;-65
2023/01/16 08:02:40;;;;;;;2.17;1.40;;;4.80;1.00;;;;;;4875093;29;20205;-65
2023/01/16 08:05:09;;;;;;;2.10;1.20;;;4.80;1.00;;;;;;4873847;29;20255;-65
2023/01/16 08:07:36;;;;;;;3.07;1.47;;;4.80;1.00;;;;;;4873120;29;20205;-65
2023/01/16 08:10:04;;;;;;;2.50;1.40;;;4.80;1.00;;;;;;4881760;29;20193;-66
2023/01/16 08:12:31;;;;;;;2.63;1.40;;;4.70;1.00;;;;;;4864622;29;20249;-66
2023/01/16 08:14:58;;;;;;;2.80;1.40;;;4.80;1.00;;;;;;4881575;29;20688;-66
2023/01/16 08:17:26;;;;;;;4.30;2.20;;;4.90;1.00;;;;;;4885219;29;20654;-67
2023/01/16 08:19:53;;;;;;;2.37;1.63;;;4.90;1.00;;;;;;4873361;29;20339;-66
2023/01/16 08:22:20;;;;;;;2.77;1.50;;;4.90;1.00;;;;;;4866220;29;20674;-65
2023/01/16 08:24:46;;;;;;;3.80;1.50;;;5.00;1.00;;;;;;4867503;29;20235;-66
2023/01/16 08:27:13;;;;;;;3.93;1.30;;;5.10;1.00;;;;;;4883005;29;20650;-66
2023/01/16 08:29:41;;;;;;;1.67;1.27;;;5.20;1.00;;;;;;4868627;29;20202;-66
2023/01/16 08:32:09;;;;;;;2.67;1.30;;;5.20;1.00;;;;;;4884658;29;20264;-66
2023/01/16 08:34:36;;;;;;;3.93;1.27;;;5.30;1.00;;;;;;4885069;29;20201;-68
2023/01/16 08:37:04;;;;;;;2.17;1.27;;;5.30;1.00;;;;;;4882020;29;20202;-66
2023/01/16 08:39:31;;;;;;;3.77;1.73;;;5.30;1.00;;;;;;4884192;29;20493;-66
2023/01/16 08:53:04;;;;;;;3.27;1.20;;;5.60;1.00;;;;;;4886470;29;20209;-66
2023/01/16 08:55:32;;;;;;;4.27;1.43;;;5.60;1.00;;;;;;4878081;29;20304;-67
2023/01/16 08:57:59;;;;;;;3.83;1.40;;;5.60;1.00;;;;;;4886778;29;20721;-66
2023/01/16 09:00:27;;;;;;;2.03;1.30;;;5.50;1.00;;;;;;4861565;29;20266;-67
2023/01/16 09:02:57;;;;;;;3.27;1.20;;;5.60;1.00;;;;;;4886769;29;20780;-65
2023/01/16 09:05:24;;;;;;;2.73;1.40;;;5.60;1.00;;;;;;4861008;29;20320;-65
2023/01/16 09:07:51;;;;;;;1.77;1.30;;;5.70;1.00;;;;;;4884940;29;20192;-68
2023/01/16 09:10:18;;;;;;;5.23;1.30;;;5.70;1.00;;;;;;4885636;29;20690;-66
2023/01/16 09:15:31;;;;;;;4.63;1.40;;;5.40;1.00;;;;;;4886228;29;20292;-67
2023/01/16 09:17:58;;;;;;;3.20;1.40;;;5.10;94.50;;;;;;4887685;29;20768;-67
2023/01/16 09:20:25;;;;;;;2.13;1.30;;;5.00;99.90;;;;;;4878079;29;20216;-68
2023/01/16 09:22:59;;;;;;;4.17;1.80;;;5.00;99.90;;;;;;4887683;29;20559;-68
2023/01/16 09:25:27;;;;;;;3.33;1.23;;;5.10;99.90;;;;;;4876456;29;20330;-68
2023/01/16 09:27:54;;;;;;;6.93;1.60;;;5.20;58.20;;;;;;4887381;29;20809;-67
2023/01/16 09:30:21;;;;;;;4.00;1.90;;;5.20;97.50;;;;;;4873406;29;20264;-67
2023/01/16 09:32:49;;;;;;;3.73;1.37;;;5.20;25.90;;;;;;4886848;29;20257;-68
2023/01/16 09:35:16;;;;;;;3.23;1.47;;;5.20;37.50;;;;;;4888831;29;20566;-68
2023/01/16 09:37:44;;;;;;;4.33;1.40;;;5.20;46.10;;;;;;4886912;29;20197;-68
2023/01/16 09:40:20;;;;;;;2.77;1.40;;;5.10;39.40;;;;;;4876216;29;20189;-68
2023/01/16 09:45:51;;;;;;;4.27;1.40;;;5.10;99.90;;;;;;4885844;29;20233;-68
2023/01/16 09:48:47;;;;;;;2.67;1.30;;;5.20;52.90;;;;;;4871781;29;20198;-68
2023/01/16 09:51:21;;;;;;;2.20;1.30;;;5.20;4.80;;;;;;4870800;29;20292;-69
2023/01/16 09:59:57;;;;;;;1.77;1.10;;;5.30;1.00;;;;;;4885399;29;20217;-69
2023/01/16 10:02:33;;;;;;;4.27;1.50;;;5.30;1.00;;;;;;4884421;29;20206;-69
2023/01/16 10:05:04;;;;;;;1.80;1.27;;;5.30;1.00;;;;;;4869596;29;20241;-69
2023/01/16 10:07:49;;;;;;;4.30;2.03;;;5.30;1.00;;;;;;4855671;29;20225;-68
2023/01/16 10:10:40;;;;;;;2.47;1.60;;;5.30;1.00;;;;;;4867241;29;20679;-69
2023/01/16 10:13:33;;;;;;;5.27;1.60;;;5.30;1.00;;;;;;4868062;29;20194;-68
2023/01/16 10:16:31;;;;;;;3.07;1.20;;;5.30;1.00;;;;;;4867725;29;20197;-69
2023/01/16 10:19:29;;;;;;;2.00;1.40;;;5.30;1.00;;;;;;4866340;29;20709;-69
2023/01/16 10:22:05;;;;;;;2.67;1.33;;;5.40;1.00;;;;;;4866671;29;20719;-68
2023/01/16 10:24:44;;;;;;;3.70;1.50;;;5.40;1.00;;;;;;4851533;29;20589;-68
2023/01/16 10:27:51;;;;;;;1.33;1.13;;;5.40;1.00;;;;;;4853695;29;20240;-68
2023/01/16 10:30:44;;;;;;;3.80;1.57;;;5.40;1.00;;;;;;4880177;29;20233;-68
2023/01/16 10:33:14;;;;;;;3.37;1.30;;;5.50;1.00;;;;;;4864260;29;20216;-68
2023/01/16 10:35:45;;;;;;;1.33;1.23;;;5.50;1.00;;;;;;4879561;29;20217;-68
2023/01/16 10:38:50;;;;;;;2.47;1.40;;;5.60;1.00;;;;;;4867301;29;20205;-68
2023/01/16 10:49:56;;;;;;;2.77;1.10;;;5.80;1.00;;;;;;4865849;29;20195;-68
2023/01/16 10:52:24;;;;;;;1.20;1.03;;;5.80;1.00;;;;;;4867374;29;20288;-67
2023/01/16 10:54:53;;;;;;;1.50;1.10;;;5.90;1.00;;;;;;4873016;29;20226;-68
2023/01/16 10:57:21;;;;;;;1.53;1.17;;;5.80;1.00;;;;;;4850827;29;20697;-68
2023/01/16 10:59:56;;;;;;;1.20;1.10;;;5.80;1.00;;;;;;4867591;29;20224;-67
2023/01/16 11:02:34;;;;;;;2.07;1.10;;;5.80;1.00;;;;;;4863443;29;20689;-69
2023/01/16 11:05:01;;;;;;;1.70;0.93;;;5.80;1.00;;;;;;4849473;29;20597;-68
2023/01/16 11:07:29;;;;;;;1.23;1.00;;;5.70;1.00;;;;;;4883868;29;20217;-68
2023/01/16 11:09:57;;;;;;;3.23;1.00;;;5.70;1.00;;;;;;4874213;29;20233;-69
2023/01/16 11:18:29;;;;;;;0.90;0.80;;;5.50;1.00;;;;;;4878026;29;20238;-67
2023/01/16 11:20:58;;;;;;;1.07;0.80;;;5.30;1.00;;;;;;4865207;29;20209;-68
2023/01/16 11:23:35;;;;;;;1.40;1.10;;;5.30;1.00;;;;;;4865149;29;20197;-68
2023/01/16 11:26:04;;;;;;;2.47;2.00;;;5.30;1.00;;;;;;4864099;29;20246;-68
2023/01/16 11:28:32;;;;;;;1.90;1.30;;;5.30;1.00;;;;;;4866773;29;20201;-68
2023/01/16 11:31:25;;;;;;;1.10;1.00;;;5.30;1.00;;;;;;4880582;29;20673;-68
2023/01/16 11:34:00;;;;;;;6.67;2.87;;;5.30;1.00;;;;;;4884373;29;20582;-68
2023/01/16 11:36:31;;;;;;;3.00;2.13;;;5.30;1.00;;;;;;4879979;29;20255;-68
2023/01/16 11:39:02;;;;;;;1.97;1.50;;;5.30;1.00;;;;;;4868140;29;20210;-68
2023/01/16 11:41:35;;;;;;;1.73;1.57;;;5.40;1.00;;;;;;4879973;29;20194;-68
2023/01/16 11:47:15;;;;;;;0.70;0.70;;;5.60;1.00;;;;;;4880451;29;20316;-68
2023/01/16 11:49:48;;;;;;;1.73;0.90;;;5.60;1.00;;;;;;4870816;29;20600;-68
2023/01/16 11:52:26;;;;;;;0.90;0.90;;;5.60;1.00;;;;;;4864193;29;20718;-68
2023/01/16 11:54:58;;;;;;;0.80;0.80;;;5.60;1.00;;;;;;4879848;29;20210;-67
2023/01/16 11:57:44;;;;;;;1.03;0.80;;;5.50;1.00;;;;;;4880651;29;20213;-67
2023/01/16 12:00:29;;;;;;;1.20;1.10;;;5.60;1.00;;;;;;4865197;29;20210;-67
2023/01/16 12:03:27;;;;;;;2.23;1.97;;;5.60;1.00;;;;;;4868549;29;20201;-67
2023/01/16 12:06:00;;;;;;;3.40;2.43;;;5.70;1.00;;;;;;4818017;29;20243;-67
2023/01/16 12:08:47;;;;;;;2.90;1.67;;;5.70;1.00;;;;;;4866329;29;20214;-69
2023/01/16 12:11:26;;;;;;;1.47;1.30;;;5.70;1.00;;;;;;4865856;29;20205;-67
2023/01/16 12:17:02;;;;;;;1.33;1.20;;;5.70;1.00;;;;;;4866236;29;20227;-67
2023/01/16 12:19:40;;;;;;;1.70;1.10;;;5.70;1.00;;;;;;4880064;29;20281;-68
2023/01/16 12:22:29;;;;;;;1.10;1.00;;;5.80;1.00;;;;;;4866135;29;20205;-67
2023/01/16 12:25:23;;;;;;;1.30;1.10;;;5.80;1.00;;;;;;4869969;29;20248;-67
2023/01/16 12:28:27;;;;;;;2.57;2.07;;;5.70;1.00;;;;;;4869942;29;20221;-68
2023/01/16 12:31:17;;;;;;;1.73;1.57;;;5.70;1.00;;;;;;4870791;29;20281;-67
2023/01/16 12:33:47;;;;;;;1.63;1.53;;;5.80;1.00;;;;;;4869494;29;20848;-67
2023/01/16 12:37:00;;;;;;;2.70;1.50;;;5.90;1.00;;;;;;4868619;29;20293;-67
2023/01/16 12:40:05;;;;;;;2.60;1.70;;;6.00;1.00;;;;;;4870478;29;20240;-68
2023/01/16 12:43:21;;;;;;;1.00;1.00;;;6.10;1.00;;;;;;4868897;29;20277;-67
2023/01/16 12:45:53;;;;;;;1.80;1.60;;;6.10;1.00;;;;;;4867396;29;20206;-68
2023/01/16 12:48:24;;;;;;;2.17;1.30;;;6.10;1.00;;;;;;4869683;29;20205;-69
2023/01/16 12:51:27;;;;;;;5.53;3.20;;;6.00;1.00;;;;;;4871046;29;20288;-68
2023/01/16 12:54:42;;;;;;;1.80;1.10;;;6.20;1.00;;;;;;4869578;29;20250;-68
2023/01/16 12:57:24;;;;;;;1.27;0.80;;;6.50;1.00;;;;;;4884021;29;20731;-68
2023/01/16 12:59:56;;;;;;;0.70;0.70;;;6.90;1.00;;;;;;4867793;29;20218;-67
2023/01/16 13:02:36;;;;;;;1.47;0.90;;;7.10;1.00;;;;;;4852641;29;20327;-67
2023/01/16 13:05:12;;;;;;;1.03;0.87;;;7.00;1.00;;;;;;4875365;29;20245;-68
2023/01/16 13:07:49;;;;;;;1.83;1.10;;;7.50;1.00;;;;;;4868694;29;20210;-67
2023/01/16 13:13:21;;;;;;;0.80;0.70;;;7.70;1.00;;;;;;4868893;29;20298;-67
2023/01/16 13:15:59;;;;;;;2.10;0.80;;;7.40;1.00;;;;;;4867842;29;22183;-68
2023/01/16 13:18:58;;;;;;;1.13;0.80;;;7.40;1.00;;;;;;4868501;29;20193;-68
2023/01/16 13:21:30;;;;;;;1.60;0.90;;;7.50;1.00;;;;;;4882632;29;20214;-69
2023/01/16 13:24:16;;;;;;;1.70;0.70;;;7.40;1.00;;;;;;4883975;29;20701;-68
2023/01/16 13:26:52;;;;;;;1.50;0.70;;;7.00;1.00;;;;;;4875333;29;20214;-67
2023/01/16 13:29:34;;;;;;;0.73;0.73;;;6.70;1.00;;;;;;4871575;29;20200;-68
2023/01/16 13:32:24;;;;;;;0.73;0.70;;;6.60;1.00;;;;;;4864655;29;20240;-68
2023/01/16 13:35:17;;;;;;;2.70;1.33;;;6.40;1.00;;;;;;4871013;29;20202;-70
2023/01/16 13:38:15;;;;;;;4.17;2.30;;;6.30;1.00;;;;;;4867531;29;20258;-67
2023/01/16 13:41:29;;;;;;;4.50;2.80;;;6.20;1.00;;;;;;4852558;29;20691;-68
2023/01/16 13:46:52;;;;;;;1.87;1.63;;;6.00;1.00;;;;;;4882353;29;20229;-68
2023/01/16 13:49:25;;;;;;;2.20;1.97;;;6.00;1.00;;;;;;4875528;29;20225;-67
2023/01/16 13:51:53;;;;;;;3.33;2.00;;;6.00;1.00;;;;;;4869895;29;20185;-67
2023/01/16 13:54:28;;;;;;;2.30;1.63;;;6.00;1.00;;;;;;4882764;29;20259;-67
2023/01/16 13:57:20;;;;;;;1.40;1.27;;;6.10;1.00;;;;;;4883883;29;20650;-67
2023/01/16 13:59:53;;;;;;;2.10;1.70;;;6.10;1.00;;;;;;4866412;29;20216;-68
2023/01/16 14:02:35;;;;;;;2.13;1.20;;;6.10;1.00;;;;;;4868612;29;20226;-67
2023/01/16 14:05:36;;;;;;;3.03;1.73;;;6.00;1.00;;;;;;4866656;29;20285;-68
2023/01/16 14:09:04;;;;;;;3.20;1.67;;;5.80;1.00;;;;;;4866962;29;20709;-69
2023/01/16 14:12:06;;;;;;;1.10;1.00;;;5.60;1.00;;;;;;4850878;29;20201;-69
2023/01/16 14:17:49;;;;;;;0.97;0.90;;;5.50;1.00;;;;;;4861124;29;20201;-66
2023/01/16 14:20:37;;;;;;;1.00;0.90;;;5.40;1.00;;;;;;4868198;29;20228;-66
2023/01/16 14:25:54;;;;;;;1.00;0.90;;;5.50;1.00;;;;;;4883269;29;20616;-66
2023/01/16 14:28:21;;;;;;;0.80;0.80;;;5.50;1.00;;;;;;4851902;29;20218;-66
2023/01/16 14:30:48;;;;;;;1.63;0.80;;;5.50;1.00;;;;;;4881860;29;20293;-65
2023/01/16 14:33:18;;;;;;;1.00;0.80;;;5.50;1.00;;;;;;4869545;29;20205;-69
2023/01/16 14:35:50;;;;;;;1.10;1.00;;;5.50;1.00;;;;;;4851536;29;20427;-65
2023/01/16 14:38:22;;;;;;;2.03;0.90;;;5.60;1.00;;;;;;4883549;29;20221;-66
2023/01/16 14:56:24;;;;;;;4.00;2.63;;;5.60;1.00;;;;;;4883374;29;20221;-66
2023/01/16 14:59:18;;;;;;;1.87;1.50;;;5.70;1.00;;;;;;4850410;29;20259;-66
2023/01/16 15:04:48;;;;;;;2.10;1.87;;;5.70;1.00;;;;;;4871856;29;20249;-65
2023/01/16 15:07:22;;;;;;;1.20;1.10;;;5.70;1.00;;;;;;4887069;29;20253;-66